sensor_id;sensor_type;location;lat;lon;timestamp;P1;durP1;ratioP1;P2;durP2;ratioP2
19848;SDS011;10085;51.120;6.956;2024-01-11T00:06:45;35.73;;;13.93;;
19848;SDS011;10085;51.120;6.956;2024-01-11T00:16:49;46.23;;;15.47;;
19848;SDS011;10085;51.120;6.956;2024-01-11T00:26:53;37.93;;;14.53;;
19848;SDS011;10085;51.120;6.956;2024-01-11T00:36:57;37.73;;;13.50;;
19848;SDS011;10085;51.120;6.956;2024-01-11T00:47:00;40.23;;;13.93;;
19848;SDS011;10085;51.120;6.956;2024-01-11T00:57:04;33.73;;;11.73;;
19848;SDS011;10085;51.120;6.956;2024-01-11T01:07:07;35.93;;;12.30;;
19848;SDS011;10085;51.120;6.956;2024-01-11T01:17:11;36.20;;;13.23;;
19848;SDS011;10085;51.120;6.956;2024-01-11T01:27:17;30.83;;;12.13;;
19848;SDS011;10085;51.120;6.956;2024-01-11T01:37:21;32.37;;;11.73;;
19848;SDS011;10085;51.120;6.956;2024-01-11T01:47:24;34.93;;;11.83;;
19848;SDS011;10085;51.120;6.956;2024-01-11T01:57:29;32.53;;;11.10;;
19848;SDS011;10085;51.120;6.956;2024-01-11T02:07:33;32.53;;;11.47;;
19848;SDS011;10085;51.120;6.956;2024-01-11T02:17:37;31.47;;;11.10;;
19848;SDS011;10085;51.120;6.956;2024-01-11T02:27:47;30.23;;;11.73;;
19848;SDS011;10085;51.120;6.956;2024-01-11T02:37:50;32.47;;;11.17;;
19848;SDS011;10085;51.120;6.956;2024-01-11T02:47:55;32.20;;;10.63;;
19848;SDS011;10085;51.120;6.956;2024-01-11T02:57:58;28.83;;;11.07;;
19848;SDS011;10085;51.120;6.956;2024-01-11T03:08:02;27.47;;;10.07;;
19848;SDS011;10085;51.120;6.956;2024-01-11T03:18:06;26.40;;;10.00;;
19848;SDS011;10085;51.120;6.956;2024-01-11T03:28:10;20.63;;;8.10;;
19848;SDS011;10085;51.120;6.956;2024-01-11T03:38:13;27.37;;;10.73;;
19848;SDS011;10085;51.120;6.956;2024-01-11T03:48:17;25.77;;;9.83;;
19848;SDS011;10085;51.120;6.956;2024-01-11T03:58:20;25.97;;;9.50;;
19848;SDS011;10085;51.120;6.956;2024-01-11T04:08:25;21.37;;;9.20;;
19848;SDS011;10085;51.120;6.956;2024-01-11T04:18:28;23.90;;;9.87;;
19848;SDS011;10085;51.120;6.956;2024-01-11T04:28:32;22.93;;;8.67;;
19848;SDS011;10085;51.120;6.956;2024-01-11T04:38:35;20.10;;;8.17;;
19848;SDS011;10085;51.120;6.956;2024-01-11T04:48:40;17.60;;;7.97;;
19848;SDS011;10085;51.120;6.956;2024-01-11T04:58:43;19.83;;;8.10;;
19848;SDS011;10085;51.120;6.956;2024-01-11T05:08:49;16.70;;;5.87;;
19848;SDS011;10085;51.120;6.956;2024-01-11T05:18:54;18.97;;;7.03;;
19848;SDS011;10085;51.120;6.956;2024-01-11T05:28:59;12.57;;;4.90;;
19848;SDS011;10085;51.120;6.956;2024-01-11T05:39:04;17.07;;;7.40;;
19848;SDS011;10085;51.120;6.956;2024-01-11T14:05:33;12.55;;;5.35;;
19848;SDS011;10085;51.120;6.956;2024-01-11T14:15:36;26.13;;;10.55;;
19848;SDS011;10085;51.120;6.956;2024-01-11T14:25:40;26.30;;;11.00;;
19848;SDS011;10085;51.120;6.956;2024-01-11T14:35:44;32.97;;;12.55;;
19848;SDS011;10085;51.120;6.956;2024-01-11T14:45:48;34.65;;;13.10;;
19848;SDS011;10085;51.120;6.956;2024-01-11T14:55:54;32.25;;;12.10;;
19848;SDS011;10085;51.120;6.956;2024-01-11T15:05:58;38.53;;;14.40;;
19848;SDS011;10085;51.120;6.956;2024-01-11T15:16:01;40.08;;;14.38;;
19848;SDS011;10085;51.120;6.956;2024-01-11T15:26:05;45.80;;;15.43;;
19848;SDS011;10085;51.120;6.956;2024-01-11T15:36:08;47.30;;;17.02;;
19848;SDS011;10085;51.120;6.956;2024-01-11T15:46:13;50.50;;;17.48;;
19848;SDS011;10085;51.120;6.956;2024-01-11T15:56:15;36.78;;;13.40;;
19848;SDS011;10085;51.120;6.956;2024-01-11T16:06:20;41.70;;;15.07;;
19848;SDS011;10085;51.120;6.956;2024-01-11T16:16:22;27.08;;;9.52;;
19848;SDS011;10085;51.120;6.956;2024-01-11T16:26:27;32.53;;;11.07;;
19848;SDS011;10085;51.120;6.956;2024-01-11T16:36:30;50.67;;;18.38;;
19848;SDS011;10085;51.120;6.956;2024-01-11T16:46:34;55.27;;;18.90;;
19848;SDS011;10085;51.120;6.956;2024-01-11T16:56:37;53.47;;;17.58;;
19848;SDS011;10085;51.120;6.956;2024-01-11T17:06:41;52.77;;;17.47;;
19848;SDS011;10085;51.120;6.956;2024-01-11T17:16:43;59.47;;;19.23;;
19848;SDS011;10085;51.120;6.956;2024-01-11T17:26:48;45.15;;;13.55;;
19848;SDS011;10085;51.120;6.956;2024-01-11T17:36:51;62.20;;;17.50;;
19848;SDS011;10085;51.120;6.956;2024-01-11T17:46:55;49.30;;;15.30;;
19848;SDS011;10085;51.120;6.956;2024-01-11T17:56:57;39.17;;;13.23;;
19848;SDS011;10085;51.120;6.956;2024-01-11T18:07:02;28.83;;;11.10;;
19848;SDS011;10085;51.120;6.956;2024-01-11T18:17:05;25.90;;;9.48;;
19848;SDS011;10085;51.120;6.956;2024-01-11T18:27:10;24.52;;;10.13;;
19848;SDS011;10085;51.120;6.956;2024-01-11T18:37:12;19.52;;;7.90;;
19848;SDS011;10085;51.120;6.956;2024-01-11T18:47:16;12.20;;;4.78;;
19848;SDS011;10085;51.120;6.956;2024-01-11T18:57:19;14.85;;;5.97;;
19848;SDS011;10085;51.120;6.956;2024-01-11T19:07:23;17.48;;;7.68;;
19848;SDS011;10085;51.120;6.956;2024-01-11T19:17:26;14.55;;;6.95;;
19848;SDS011;10085;51.120;6.956;2024-01-11T19:27:31;20.25;;;7.60;;
19848;SDS011;10085;51.120;6.956;2024-01-11T19:37:34;19.35;;;8.60;;
19848;SDS011;10085;51.120;6.956;2024-01-11T19:47:38;15.20;;;6.78;;
19848;SDS011;10085;51.120;6.956;2024-01-11T19:57:41;12.68;;;5.78;;
19848;SDS011;10085;51.120;6.956;2024-01-11T20:07:45;13.80;;;6.80;;
19848;SDS011;10085;51.120;6.956;2024-01-11T20:17:48;18.73;;;8.35;;
19848;SDS011;10085;51.120;6.956;2024-01-11T20:27:52;29.15;;;11.38;;
19848;SDS011;10085;51.120;6.956;2024-01-11T20:37:55;32.55;;;12.40;;
19848;SDS011;10085;51.120;6.956;2024-01-11T20:47:59;35.95;;;12.52;;
19848;SDS011;10085;51.120;6.956;2024-01-11T20:58:02;35.05;;;12.77;;
19848;SDS011;10085;51.120;6.956;2024-01-11T21:08:07;37.28;;;13.85;;
19848;SDS011;10085;51.120;6.956;2024-01-11T21:18:10;25.08;;;8.93;;
19848;SDS011;10085;51.120;6.956;2024-01-11T21:28:15;39.38;;;14.98;;
19848;SDS011;10085;51.120;6.956;2024-01-11T21:38:19;39.13;;;14.65;;
19848;SDS011;10085;51.120;6.956;2024-01-11T21:48:23;37.63;;;14.40;;
19848;SDS011;10085;51.120;6.956;2024-01-11T21:58:26;39.60;;;14.82;;
19848;SDS011;10085;51.120;6.956;2024-01-11T22:08:32;37.90;;;13.83;;
19848;SDS011;10085;51.120;6.956;2024-01-11T22:18:35;40.63;;;14.70;;
19848;SDS011;10085;51.120;6.956;2024-01-11T22:28:39;14.93;;;6.47;;
19848;SDS011;10085;51.120;6.956;2024-01-11T22:38:43;24.57;;;8.73;;
19848;SDS011;10085;51.120;6.956;2024-01-11T22:48:48;12.95;;;5.70;;
19848;SDS011;10085;51.120;6.956;2024-01-11T22:58:51;29.90;;;13.20;;
19848;SDS011;10085;51.120;6.956;2024-01-11T23:08:55;28.70;;;11.20;;
19848;SDS011;10085;51.120;6.956;2024-01-11T23:18:58;32.37;;;10.43;;
19848;SDS011;10085;51.120;6.956;2024-01-11T23:29:02;35.90;;;13.73;;
19848;SDS011;10085;51.120;6.956;2024-01-11T23:39:05;35.07;;;13.10;;
19848;SDS011;10085;51.120;6.956;2024-01-11T23:49:10;28.60;;;10.90;;
19848;SDS011;10085;51.120;6.956;2024-01-11T23:59:13;30.40;;;13.10;;
